sensor_id;sensor_type;location;lat;lon;timestamp;temperature;humidity
42989;DHT22;28622;43.716;20.668;2022-10-29T00:02:00;9.20;99.90
42989;DHT22;28622;43.716;20.668;2022-10-29T00:04:26;9.20;99.90
42989;DHT22;28622;43.716;20.668;2022-10-29T00:06:52;9.20;99.90
42989;DHT22;28622;43.716;20.668;2022-10-29T00:09:18;9.20;99.90
42989;DHT22;28622;43.716;20.668;2022-10-29T00:11:43;9.20;99.90
42989;DHT22;28622;43.716;20.668;2022-10-29T00:14:09;9.20;99.90
42989;DHT22;28622;43.716;20.668;2022-10-29T00:16:38;9.20;99.90
42989;DHT22;28622;43.716;20.668;2022-10-29T00:19:04;9.20;99.90
42989;DHT22;28622;43.716;20.668;2022-10-29T00:21:31;9.30;99.90
42989;DHT22;28622;43.716;20.668;2022-10-29T00:23:57;9.30;99.90
42989;DHT22;28622;43.716;20.668;2022-10-29T00:26:24;9.30;99.90
42989;DHT22;28622;43.716;20.668;2022-10-29T00:28:55;9.30;99.90
42989;DHT22;28622;43.716;20.668;2022-10-29T00:31:22;9.20;99.90
42989;DHT22;28622;43.716;20.668;2022-10-29T00:33:49;9.20;99.90
42989;DHT22;28622;43.716;20.668;2022-10-29T00:36:18;9.20;99.90
42989;DHT22;28622;43.716;20.668;2022-10-29T00:38:46;9.20;99.90
42989;DHT22;28622;43.716;20.668;2022-10-29T00:41:16;9.30;99.90
42989;DHT22;28622;43.716;20.668;2022-10-29T00:43:51;9.20;99.90
42989;DHT22;28622;43.716;20.668;2022-10-29T00:46:29;9.20;99.90
42989;DHT22;28622;43.716;20.668;2022-10-29T00:48:57;9.20;99.90
42989;DHT22;28622;43.716;20.668;2022-10-29T00:51:24;9.20;99.90
42989;DHT22;28622;43.716;20.668;2022-10-29T00:53:56;9.10;99.90
42989;DHT22;28622;43.716;20.668;2022-10-29T00:56:24;9.00;99.90
42989;DHT22;28622;43.716;20.668;2022-10-29T00:58:51;9.00;99.90
42989;DHT22;28622;43.716;20.668;2022-10-29T01:01:17;9.00;99.90
42989;DHT22;28622;43.716;20.668;2022-10-29T01:03:43;9.00;99.90
42989;DHT22;28622;43.716;20.668;2022-10-29T01:06:09;9.00;99.90
42989;DHT22;28622;43.716;20.668;2022-10-29T01:08:35;8.90;99.90
42989;DHT22;28622;43.716;20.668;2022-10-29T01:17:35;8.50;99.90
42989;DHT22;28622;43.716;20.668;2022-10-29T01:23:12;8.50;99.90
42989;DHT22;28622;43.716;20.668;2022-10-29T01:32:03;8.30;99.90
42989;DHT22;28622;43.716;20.668;2022-10-29T01:34:42;8.40;99.90
42989;DHT22;28622;43.716;20.668;2022-10-29T01:37:14;8.50;99.90
42989;DHT22;28622;43.716;20.668;2022-10-29T01:40:06;8.40;99.90
42989;DHT22;28622;43.716;20.668;2022-10-29T01:42:56;8.40;99.90
42989;DHT22;28622;43.716;20.668;2022-10-29T01:45:32;8.40;99.90
42989;DHT22;28622;43.716;20.668;2022-10-29T01:48:06;8.40;99.90
42989;DHT22;28622;43.716;20.668;2022-10-29T01:50:36;8.50;99.90
42989;DHT22;28622;43.716;20.668;2022-10-29T01:53:03;8.50;99.90
42989;DHT22;28622;43.716;20.668;2022-10-29T01:55:32;8.40;99.90
42989;DHT22;28622;43.716;20.668;2022-10-29T01:58:02;8.40;99.90
42989;DHT22;28622;43.716;20.668;2022-10-29T02:00:37;8.40;99.90
42989;DHT22;28622;43.716;20.668;2022-10-29T02:09:14;8.40;99.90
42989;DHT22;28622;43.716;20.668;2022-10-29T02:11:23;8.40;99.90
42989;DHT22;28622;43.716;20.668;2022-10-29T02:13:58;8.40;99.90
42989;DHT22;28622;43.716;20.668;2022-10-29T02:16:28;8.40;99.90
42989;DHT22;28622;43.716;20.668;2022-10-29T02:18:54;8.40;99.90
42989;DHT22;28622;43.716;20.668;2022-10-29T02:21:22;8.40;99.90
42989;DHT22;28622;43.716;20.668;2022-10-29T02:23:48;8.40;99.90
42989;DHT22;28622;43.716;20.668;2022-10-29T02:26:13;8.40;99.90
42989;DHT22;28622;43.716;20.668;2022-10-29T02:28:40;8.40;99.90
42989;DHT22;28622;43.716;20.668;2022-10-29T02:31:06;8.40;99.90
42989;DHT22;28622;43.716;20.668;2022-10-29T02:33:32;8.30;99.90
42989;DHT22;28622;43.716;20.668;2022-10-29T02:35:58;8.30;99.90
42989;DHT22;28622;43.716;20.668;2022-10-29T02:38:24;8.20;99.90
42989;DHT22;28622;43.716;20.668;2022-10-29T02:40:49;8.20;99.90
42989;DHT22;28622;43.716;20.668;2022-10-29T02:43:15;8.10;99.90
42989;DHT22;28622;43.716;20.668;2022-10-29T02:45:41;8.10;99.90
42989;DHT22;28622;43.716;20.668;2022-10-29T02:48:07;8.00;99.90
42989;DHT22;28622;43.716;20.668;2022-10-29T02:50:32;8.00;99.90
42989;DHT22;28622;43.716;20.668;2022-10-29T02:52:58;8.00;99.90
42989;DHT22;28622;43.716;20.668;2022-10-29T02:55:24;7.90;99.90
42989;DHT22;28622;43.716;20.668;2022-10-29T02:57:49;7.90;99.90
42989;DHT22;28622;43.716;20.668;2022-10-29T03:00:15;7.90;99.90
42989;DHT22;28622;43.716;20.668;2022-10-29T03:02:41;7.80;99.90
42989;DHT22;28622;43.716;20.668;2022-10-29T03:05:07;7.80;99.90
42989;DHT22;28622;43.716;20.668;2022-10-29T03:07:37;7.80;99.90
42989;DHT22;28622;43.716;20.668;2022-10-29T03:10:04;7.80;99.90
42989;DHT22;28622;43.716;20.668;2022-10-29T03:12:30;7.70;99.90
42989;DHT22;28622;43.716;20.668;2022-10-29T03:14:56;7.70;99.90
42989;DHT22;28622;43.716;20.668;2022-10-29T03:17:21;7.70;99.90
42989;DHT22;28622;43.716;20.668;2022-10-29T03:19:48;7.70;99.90
42989;DHT22;28622;43.716;20.668;2022-10-29T03:22:14;7.70;99.90
42989;DHT22;28622;43.716;20.668;2022-10-29T03:24:40;7.70;99.90
42989;DHT22;28622;43.716;20.668;2022-10-29T03:27:05;7.70;99.90
42989;DHT22;28622;43.716;20.668;2022-10-29T03:29:31;7.70;99.90
42989;DHT22;28622;43.716;20.668;2022-10-29T03:31:57;7.70;99.90
42989;DHT22;28622;43.716;20.668;2022-10-29T03:34:22;7.70;99.90
42989;DHT22;28622;43.716;20.668;2022-10-29T03:36:48;7.70;99.90
42989;DHT22;28622;43.716;20.668;2022-10-29T03:39:14;7.80;99.90
42989;DHT22;28622;43.716;20.668;2022-10-29T03:41:40;7.80;99.90
42989;DHT22;28622;43.716;20.668;2022-10-29T03:44:05;7.70;99.90
42989;DHT22;28622;43.716;20.668;2022-10-29T03:46:31;7.70;99.90
42989;DHT22;28622;43.716;20.668;2022-10-29T03:48:57;7.70;99.90
42989;DHT22;28622;43.716;20.668;2022-10-29T03:51:23;7.70;99.90
42989;DHT22;28622;43.716;20.668;2022-10-29T03:53:49;7.70;99.90
42989;DHT22;28622;43.716;20.668;2022-10-29T03:56:14;7.70;99.90
42989;DHT22;28622;43.716;20.668;2022-10-29T03:58:40;7.70;99.90
42989;DHT22;28622;43.716;20.668;2022-10-29T04:01:07;7.70;99.90
42989;DHT22;28622;43.716;20.668;2022-10-29T04:03:35;7.60;99.90
42989;DHT22;28622;43.716;20.668;2022-10-29T04:06:07;7.70;99.90
42989;DHT22;28622;43.716;20.668;2022-10-29T04:08:33;7.70;99.90
42989;DHT22;28622;43.716;20.668;2022-10-29T04:10:58;7.70;99.90
42989;DHT22;28622;43.716;20.668;2022-10-29T04:13:24;7.70;99.90
42989;DHT22;28622;43.716;20.668;2022-10-29T04:15:53;7.60;99.90
42989;DHT22;28622;43.716;20.668;2022-10-29T04:18:19;7.60;99.90
42989;DHT22;28622;43.716;20.668;2022-10-29T04:20:45;7.60;99.90
42989;DHT22;28622;43.716;20.668;2022-10-29T04:23:11;7.60;99.90
42989;DHT22;28622;43.716;20.668;2022-10-29T04:25:36;7.50;99.90
42989;DHT22;28622;43.716;20.668;2022-10-29T04:28:02;7.50;99.90
42989;DHT22;28622;43.716;20.668;2022-10-29T04:30:28;7.50;99.90
42989;DHT22;28622;43.716;20.668;2022-10-29T04:32:56;7.50;99.90
42989;DHT22;28622;43.716;20.668;2022-10-29T04:35:22;7.50;99.90
42989;DHT22;28622;43.716;20.668;2022-10-29T04:37:48;7.40;99.90
42989;DHT22;28622;43.716;20.668;2022-10-29T04:40:14;7.50;99.90
42989;DHT22;28622;43.716;20.668;2022-10-29T04:42:39;7.50;99.90
42989;DHT22;28622;43.716;20.668;2022-10-29T04:45:06;7.50;99.90
42989;DHT22;28622;43.716;20.668;2022-10-29T04:47:32;7.50;99.90
42989;DHT22;28622;43.716;20.668;2022-10-29T04:49:58;7.40;99.90
42989;DHT22;28622;43.716;20.668;2022-10-29T04:52:24;7.40;99.90
42989;DHT22;28622;43.716;20.668;2022-10-29T04:54:50;7.40;99.90
42989;DHT22;28622;43.716;20.668;2022-10-29T04:57:16;7.30;99.90
42989;DHT22;28622;43.716;20.668;2022-10-29T04:59:42;7.40;99.90
42989;DHT22;28622;43.716;20.668;2022-10-29T05:02:08;7.30;99.90
42989;DHT22;28622;43.716;20.668;2022-10-29T05:04:34;7.30;99.90
42989;DHT22;28622;43.716;20.668;2022-10-29T05:07:00;7.30;99.90
42989;DHT22;28622;43.716;20.668;2022-10-29T05:09:25;7.40;99.90
42989;DHT22;28622;43.716;20.668;2022-10-29T05:11:51;7.50;99.90
42989;DHT22;28622;43.716;20.668;2022-10-29T05:14:17;7.60;99.90
42989;DHT22;28622;43.716;20.668;2022-10-29T05:16:43;7.40;99.90
42989;DHT22;28622;43.716;20.668;2022-10-29T05:19:08;7.40;99.90
42989;DHT22;28622;43.716;20.668;2022-10-29T05:21:34;7.30;99.90
42989;DHT22;28622;43.716;20.668;2022-10-29T05:24:00;7.40;99.90
42989;DHT22;28622;43.716;20.668;2022-10-29T05:26:26;7.30;99.90
42989;DHT22;28622;43.716;20.668;2022-10-29T05:28:52;7.40;99.90
42989;DHT22;28622;43.716;20.668;2022-10-29T05:31:18;7.30;99.90
42989;DHT22;28622;43.716;20.668;2022-10-29T05:33:43;7.40;99.90
42989;DHT22;28622;43.716;20.668;2022-10-29T05:36:09;7.40;99.90
42989;DHT22;28622;43.716;20.668;2022-10-29T05:38:35;7.40;99.90
42989;DHT22;28622;43.716;20.668;2022-10-29T05:41:01;7.50;99.90
42989;DHT22;28622;43.716;20.668;2022-10-29T05:43:27;7.50;99.90
42989;DHT22;28622;43.716;20.668;2022-10-29T05:45:53;7.60;99.90
42989;DHT22;28622;43.716;20.668;2022-10-29T05:48:18;7.60;99.90
42989;DHT22;28622;43.716;20.668;2022-10-29T05:50:44;7.70;99.90
42989;DHT22;28622;43.716;20.668;2022-10-29T05:53:13;7.70;99.90
42989;DHT22;28622;43.716;20.668;2022-10-29T05:55:40;7.80;99.90
42989;DHT22;28622;43.716;20.668;2022-10-29T05:58:09;7.80;99.90
42989;DHT22;28622;43.716;20.668;2022-10-29T06:00:37;8.00;99.90
42989;DHT22;28622;43.716;20.668;2022-10-29T06:03:07;8.00;99.90
42989;DHT22;28622;43.716;20.668;2022-10-29T06:05:33;8.00;99.90
42989;DHT22;28622;43.716;20.668;2022-10-29T06:08:00;8.10;99.90
42989;DHT22;28622;43.716;20.668;2022-10-29T06:10:27;8.20;99.90
42989;DHT22;28622;43.716;20.668;2022-10-29T06:12:53;8.30;99.90
42989;DHT22;28622;43.716;20.668;2022-10-29T06:17:46;8.50;99.90
42989;DHT22;28622;43.716;20.668;2022-10-29T06:20:14;8.50;99.90
42989;DHT22;28622;43.716;20.668;2022-10-29T06:22:40;8.60;99.90
42989;DHT22;28622;43.716;20.668;2022-10-29T06:25:06;8.80;99.90
42989;DHT22;28622;43.716;20.668;2022-10-29T06:27:32;8.90;99.90
42989;DHT22;28622;43.716;20.668;2022-10-29T06:29:58;9.10;99.90
42989;DHT22;28622;43.716;20.668;2022-10-29T06:32:23;9.30;99.90
42989;DHT22;28622;43.716;20.668;2022-10-29T06:34:49;9.60;99.90
42989;DHT22;28622;43.716;20.668;2022-10-29T06:37:15;9.80;99.90
42989;DHT22;28622;43.716;20.668;2022-10-29T06:39:41;10.00;99.90
42989;DHT22;28622;43.716;20.668;2022-10-29T06:42:06;10.10;99.90
42989;DHT22;28622;43.716;20.668;2022-10-29T06:44:32;10.40;99.90
42989;DHT22;28622;43.716;20.668;2022-10-29T06:46:58;10.60;99.90
42989;DHT22;28622;43.716;20.668;2022-10-29T06:49:23;10.90;99.90
42989;DHT22;28622;43.716;20.668;2022-10-29T06:51:50;11.00;99.90
42989;DHT22;28622;43.716;20.668;2022-10-29T06:54:16;11.30;99.90
42989;DHT22;28622;43.716;20.668;2022-10-29T06:56:41;11.60;99.90
42989;DHT22;28622;43.716;20.668;2022-10-29T06:59:07;12.10;99.90
42989;DHT22;28622;43.716;20.668;2022-10-29T07:01:33;12.20;99.90
42989;DHT22;28622;43.716;20.668;2022-10-29T07:03:59;12.70;99.90
42989;DHT22;28622;43.716;20.668;2022-10-29T07:06:25;12.70;99.90
42989;DHT22;28622;43.716;20.668;2022-10-29T07:08:51;12.60;99.90
42989;DHT22;28622;43.716;20.668;2022-10-29T07:11:17;12.60;99.90
42989;DHT22;28622;43.716;20.668;2022-10-29T07:13:42;12.70;99.90
42989;DHT22;28622;43.716;20.668;2022-10-29T07:16:08;12.90;99.90
42989;DHT22;28622;43.716;20.668;2022-10-29T07:18:34;13.10;99.90
42989;DHT22;28622;43.716;20.668;2022-10-29T07:21:01;13.10;99.90
42989;DHT22;28622;43.716;20.668;2022-10-29T07:23:28;13.20;99.90
42989;DHT22;28622;43.716;20.668;2022-10-29T07:25:54;13.40;99.90
42989;DHT22;28622;43.716;20.668;2022-10-29T07:28:20;13.70;99.90
42989;DHT22;28622;43.716;20.668;2022-10-29T07:30:48;13.60;99.90
42989;DHT22;28622;43.716;20.668;2022-10-29T07:33:15;13.80;99.90
42989;DHT22;28622;43.716;20.668;2022-10-29T07:35:41;14.00;99.90
42989;DHT22;28622;43.716;20.668;2022-10-29T07:38:09;14.20;99.90
42989;DHT22;28622;43.716;20.668;2022-10-29T07:40:36;14.80;99.90
42989;DHT22;28622;43.716;20.668;2022-10-29T07:43:01;14.80;99.90
42989;DHT22;28622;43.716;20.668;2022-10-29T07:45:27;15.00;99.90
42989;DHT22;28622;43.716;20.668;2022-10-29T07:48:04;15.10;99.90
42989;DHT22;28622;43.716;20.668;2022-10-29T07:50:32;15.30;99.90
42989;DHT22;28622;43.716;20.668;2022-10-29T07:53:02;15.70;99.90
42989;DHT22;28622;43.716;20.668;2022-10-29T07:57:58;16.10;99.90
42989;DHT22;28622;43.716;20.668;2022-10-29T08:00:30;16.00;99.90
42989;DHT22;28622;43.716;20.668;2022-10-29T08:02:56;16.10;99.90
42989;DHT22;28622;43.716;20.668;2022-10-29T08:05:23;16.40;99.90
42989;DHT22;28622;43.716;20.668;2022-10-29T08:07:49;16.30;99.90
42989;DHT22;28622;43.716;20.668;2022-10-29T08:10:17;16.80;99.90
42989;DHT22;28622;43.716;20.668;2022-10-29T08:12:53;17.00;99.90
42989;DHT22;28622;43.716;20.668;2022-10-29T08:15:20;17.20;99.90
42989;DHT22;28622;43.716;20.668;2022-10-29T08:17:46;17.40;99.90
42989;DHT22;28622;43.716;20.668;2022-10-29T08:22:39;17.50;99.90
42989;DHT22;28622;43.716;20.668;2022-10-29T08:25:05;17.60;99.90
42989;DHT22;28622;43.716;20.668;2022-10-29T08:27:31;17.50;99.90
42989;DHT22;28622;43.716;20.668;2022-10-29T08:29:57;17.80;99.90
42989;DHT22;28622;43.716;20.668;2022-10-29T08:32:23;18.20;99.90
42989;DHT22;28622;43.716;20.668;2022-10-29T08:34:48;18.20;99.90
42989;DHT22;28622;43.716;20.668;2022-10-29T08:37:14;18.60;99.90
42989;DHT22;28622;43.716;20.668;2022-10-29T08:39:40;18.70;99.90
42989;DHT22;28622;43.716;20.668;2022-10-29T08:50:36;19.00;98.10
42989;DHT22;28622;43.716;20.668;2022-10-29T08:53:18;19.30;98.40
42989;DHT22;28622;43.716;20.668;2022-10-29T08:55:45;19.30;97.70
42989;DHT22;28622;43.716;20.668;2022-10-29T08:58:29;19.50;97.70
42989;DHT22;28622;43.716;20.668;2022-10-29T09:00:57;19.90;97.10
42989;DHT22;28622;43.716;20.668;2022-10-29T09:03:25;20.20;96.30
42989;DHT22;28622;43.716;20.668;2022-10-29T09:06:08;20.20;96.20
42989;DHT22;28622;43.716;20.668;2022-10-29T09:19:25;21.50;93.90
42989;DHT22;28622;43.716;20.668;2022-10-29T09:27:19;22.20;91.90
42989;DHT22;28622;43.716;20.668;2022-10-29T09:30:10;22.20;91.50
42989;DHT22;28622;43.716;20.668;2022-10-29T09:32:47;22.60;92.10
42989;DHT22;28622;43.716;20.668;2022-10-29T09:35:18;22.30;90.70
42989;DHT22;28622;43.716;20.668;2022-10-29T09:37:55;22.20;90.60
42989;DHT22;28622;43.716;20.668;2022-10-29T09:42:54;22.50;90.50
42989;DHT22;28622;43.716;20.668;2022-10-29T09:45:33;22.70;90.70
42989;DHT22;28622;43.716;20.668;2022-10-29T09:48:10;23.00;89.90
42989;DHT22;28622;43.716;20.668;2022-10-29T09:53:19;23.30;87.80
42989;DHT22;28622;43.716;20.668;2022-10-29T09:55:47;23.40;88.30
42989;DHT22;28622;43.716;20.668;2022-10-29T09:58:22;23.50;86.90
42989;DHT22;28622;43.716;20.668;2022-10-29T10:00:48;23.30;87.60
42989;DHT22;28622;43.716;20.668;2022-10-29T10:03:15;23.40;87.70
42989;DHT22;28622;43.716;20.668;2022-10-29T10:06:03;23.70;86.70
42989;DHT22;28622;43.716;20.668;2022-10-29T10:08:31;23.80;87.50
42989;DHT22;28622;43.716;20.668;2022-10-29T10:11:01;23.50;86.00
42989;DHT22;28622;43.716;20.668;2022-10-29T10:13:50;23.90;85.40
42989;DHT22;28622;43.716;20.668;2022-10-29T10:16:23;24.40;83.90
42989;DHT22;28622;43.716;20.668;2022-10-29T10:18:49;24.60;83.30
42989;DHT22;28622;43.716;20.668;2022-10-29T10:21:27;24.30;82.60
42989;DHT22;28622;43.716;20.668;2022-10-29T10:23:54;24.00;83.10
42989;DHT22;28622;43.716;20.668;2022-10-29T10:26:40;24.20;83.00
42989;DHT22;28622;43.716;20.668;2022-10-29T10:29:16;24.10;84.80
42989;DHT22;28622;43.716;20.668;2022-10-29T10:34:21;24.40;83.90
42989;DHT22;28622;43.716;20.668;2022-10-29T10:41:53;24.80;82.50
42989;DHT22;28622;43.716;20.668;2022-10-29T10:44:21;24.50;81.60
42989;DHT22;28622;43.716;20.668;2022-10-29T10:46:49;24.40;82.80
42989;DHT22;28622;43.716;20.668;2022-10-29T10:49:36;24.30;83.50
42989;DHT22;28622;43.716;20.668;2022-10-29T10:52:17;25.00;82.30
42989;DHT22;28622;43.716;20.668;2022-10-29T10:55:07;25.30;79.90
42989;DHT22;28622;43.716;20.668;2022-10-29T10:57:46;25.40;78.80
42989;DHT22;28622;43.716;20.668;2022-10-29T11:00:19;25.40;79.00
42989;DHT22;28622;43.716;20.668;2022-10-29T11:05:24;25.40;80.20
42989;DHT22;28622;43.716;20.668;2022-10-29T11:13:19;24.90;79.10
42989;DHT22;28622;43.716;20.668;2022-10-29T11:21:20;26.00;77.20
42989;DHT22;28622;43.716;20.668;2022-10-29T11:26:39;25.90;78.30
42989;DHT22;28622;43.716;20.668;2022-10-29T11:29:23;26.30;77.60
42989;DHT22;28622;43.716;20.668;2022-10-29T11:39:51;26.70;75.60
42989;DHT22;28622;43.716;20.668;2022-10-29T11:42:20;26.80;77.50
42989;DHT22;28622;43.716;20.668;2022-10-29T11:44:45;27.20;74.10
42989;DHT22;28622;43.716;20.668;2022-10-29T11:58:06;26.70;76.30
42989;DHT22;28622;43.716;20.668;2022-10-29T12:01:19;26.80;75.80
42989;DHT22;28622;43.716;20.668;2022-10-29T12:14:55;26.80;72.70
42989;DHT22;28622;43.716;20.668;2022-10-29T12:17:45;26.90;73.60
42989;DHT22;28622;43.716;20.668;2022-10-29T12:23:00;26.80;70.20
42989;DHT22;28622;43.716;20.668;2022-10-29T12:30:38;26.60;72.70
42989;DHT22;28622;43.716;20.668;2022-10-29T12:33:19;27.10;73.30
42989;DHT22;28622;43.716;20.668;2022-10-29T12:38:55;27.10;70.30
42989;DHT22;28622;43.716;20.668;2022-10-29T12:41:45;27.40;72.60
42989;DHT22;28622;43.716;20.668;2022-10-29T12:47:35;27.80;71.30
42989;DHT22;28622;43.716;20.668;2022-10-29T12:50:29;27.90;70.30
42989;DHT22;28622;43.716;20.668;2022-10-29T12:55:47;27.40;68.60
42989;DHT22;28622;43.716;20.668;2022-10-29T12:58:49;27.40;68.60
42989;DHT22;28622;43.716;20.668;2022-10-29T13:09:20;26.90;68.90
42989;DHT22;28622;43.716;20.668;2022-10-29T13:11:52;26.70;69.30
42989;DHT22;28622;43.716;20.668;2022-10-29T13:14:28;27.10;69.80
42989;DHT22;28622;43.716;20.668;2022-10-29T13:16:57;27.00;67.50
42989;DHT22;28622;43.716;20.668;2022-10-29T13:24:39;26.40;65.60
42989;DHT22;28622;43.716;20.668;2022-10-29T13:32:38;25.90;66.40
42989;DHT22;28622;43.716;20.668;2022-10-29T13:38:14;26.40;65.30
42989;DHT22;28622;43.716;20.668;2022-10-29T13:41:06;26.30;66.50
42989;DHT22;28622;43.716;20.668;2022-10-29T13:43:36;26.10;68.60
42989;DHT22;28622;43.716;20.668;2022-10-29T13:48:47;26.10;67.80
42989;DHT22;28622;43.716;20.668;2022-10-29T13:51:28;25.50;68.70
42989;DHT22;28622;43.716;20.668;2022-10-29T13:54:04;25.50;69.60
42989;DHT22;28622;43.716;20.668;2022-10-29T13:56:44;25.20;70.40
42989;DHT22;28622;43.716;20.668;2022-10-29T13:59:31;25.30;69.50
42989;DHT22;28622;43.716;20.668;2022-10-29T14:04:39;25.30;69.80
42989;DHT22;28622;43.716;20.668;2022-10-29T14:07:13;25.10;70.20
42989;DHT22;28622;43.716;20.668;2022-10-29T14:09:48;25.00;70.70
42989;DHT22;28622;43.716;20.668;2022-10-29T14:12:19;25.00;71.30
42989;DHT22;28622;43.716;20.668;2022-10-29T14:15:04;24.80;72.50
42989;DHT22;28622;43.716;20.668;2022-10-29T14:17:30;24.40;74.20
42989;DHT22;28622;43.716;20.668;2022-10-29T14:19:56;24.20;73.00
42989;DHT22;28622;43.716;20.668;2022-10-29T14:24:54;23.70;73.30
42989;DHT22;28622;43.716;20.668;2022-10-29T14:27:20;23.30;73.30
42989;DHT22;28622;43.716;20.668;2022-10-29T14:29:46;23.10;74.10
42989;DHT22;28622;43.716;20.668;2022-10-29T14:34:41;22.80;75.40
42989;DHT22;28622;43.716;20.668;2022-10-29T14:37:14;22.80;77.30
42989;DHT22;28622;43.716;20.668;2022-10-29T14:39:54;22.70;77.10
42989;DHT22;28622;43.716;20.668;2022-10-29T14:42:30;22.60;77.60
42989;DHT22;28622;43.716;20.668;2022-10-29T14:45:02;22.50;76.60
42989;DHT22;28622;43.716;20.668;2022-10-29T14:47:30;22.40;77.20
42989;DHT22;28622;43.716;20.668;2022-10-29T14:49:57;22.30;77.10
42989;DHT22;28622;43.716;20.668;2022-10-29T14:52:28;22.20;79.10
42989;DHT22;28622;43.716;20.668;2022-10-29T14:55:07;22.00;81.00
42989;DHT22;28622;43.716;20.668;2022-10-29T14:57:39;21.90;81.60
42989;DHT22;28622;43.716;20.668;2022-10-29T15:00:06;21.70;81.60
42989;DHT22;28622;43.716;20.668;2022-10-29T15:02:39;21.60;82.10
42989;DHT22;28622;43.716;20.668;2022-10-29T15:05:26;21.40;85.00
42989;DHT22;28622;43.716;20.668;2022-10-29T15:16:03;20.80;86.00
42989;DHT22;28622;43.716;20.668;2022-10-29T15:18:30;20.60;86.40
42989;DHT22;28622;43.716;20.668;2022-10-29T15:20:57;20.40;87.10
42989;DHT22;28622;43.716;20.668;2022-10-29T15:26:04;20.00;90.10
42989;DHT22;28622;43.716;20.668;2022-10-29T15:28:43;19.90;90.30
42989;DHT22;28622;43.716;20.668;2022-10-29T15:31:33;19.70;90.20
42989;DHT22;28622;43.716;20.668;2022-10-29T15:34:13;19.50;90.60
42989;DHT22;28622;43.716;20.668;2022-10-29T15:36:46;19.20;91.10
42989;DHT22;28622;43.716;20.668;2022-10-29T15:39:57;19.10;91.60
42989;DHT22;28622;43.716;20.668;2022-10-29T15:42:24;18.90;91.70
42989;DHT22;28622;43.716;20.668;2022-10-29T15:47:47;18.40;92.20
42989;DHT22;28622;43.716;20.668;2022-10-29T15:50:26;18.40;92.30
42989;DHT22;28622;43.716;20.668;2022-10-29T15:52:56;18.30;92.60
42989;DHT22;28622;43.716;20.668;2022-10-29T15:55:28;18.10;92.80
42989;DHT22;28622;43.716;20.668;2022-10-29T15:58:11;18.10;93.00
42989;DHT22;28622;43.716;20.668;2022-10-29T16:00:37;18.00;93.20
42989;DHT22;28622;43.716;20.668;2022-10-29T16:03:13;17.80;93.80
42989;DHT22;28622;43.716;20.668;2022-10-29T16:05:41;17.60;93.90
42989;DHT22;28622;43.716;20.668;2022-10-29T16:10:46;17.50;94.10
42989;DHT22;28622;43.716;20.668;2022-10-29T16:13:12;17.40;94.10
42989;DHT22;28622;43.716;20.668;2022-10-29T16:15:38;17.50;94.00
42989;DHT22;28622;43.716;20.668;2022-10-29T16:18:04;17.30;94.20
42989;DHT22;28622;43.716;20.668;2022-10-29T16:20:29;17.20;94.40
42989;DHT22;28622;43.716;20.668;2022-10-29T16:22:55;17.00;95.20
42989;DHT22;28622;43.716;20.668;2022-10-29T16:25:24;16.90;95.40
42989;DHT22;28622;43.716;20.668;2022-10-29T16:27:50;16.80;95.60
42989;DHT22;28622;43.716;20.668;2022-10-29T16:30:18;16.70;96.00
42989;DHT22;28622;43.716;20.668;2022-10-29T16:32:45;16.70;95.60
42989;DHT22;28622;43.716;20.668;2022-10-29T16:35:27;16.50;96.10
42989;DHT22;28622;43.716;20.668;2022-10-29T16:37:54;16.50;96.00
42989;DHT22;28622;43.716;20.668;2022-10-29T16:40:23;16.50;98.10
42989;DHT22;28622;43.716;20.668;2022-10-29T16:42:49;16.20;96.50
42989;DHT22;28622;43.716;20.668;2022-10-29T16:45:18;16.20;96.60
42989;DHT22;28622;43.716;20.668;2022-10-29T16:47:44;16.10;97.20
42989;DHT22;28622;43.716;20.668;2022-10-29T16:50:27;16.10;97.10
42989;DHT22;28622;43.716;20.668;2022-10-29T16:53:00;15.80;97.60
42989;DHT22;28622;43.716;20.668;2022-10-29T16:55:27;15.80;97.20
42989;DHT22;28622;43.716;20.668;2022-10-29T16:57:54;15.90;97.70
42989;DHT22;28622;43.716;20.668;2022-10-29T17:00:20;15.80;97.60
42989;DHT22;28622;43.716;20.668;2022-10-29T17:02:45;15.80;97.50
42989;DHT22;28622;43.716;20.668;2022-10-29T17:05:12;15.70;97.50
42989;DHT22;28622;43.716;20.668;2022-10-29T17:07:38;15.70;97.60
42989;DHT22;28622;43.716;20.668;2022-10-29T17:10:06;15.70;97.60
42989;DHT22;28622;43.716;20.668;2022-10-29T17:12:32;15.70;97.60
42989;DHT22;28622;43.716;20.668;2022-10-29T17:14:58;15.60;98.00
42989;DHT22;28622;43.716;20.668;2022-10-29T17:17:24;15.40;98.30
42989;DHT22;28622;43.716;20.668;2022-10-29T17:19:50;15.40;98.50
42989;DHT22;28622;43.716;20.668;2022-10-29T17:22:18;15.40;98.60
42989;DHT22;28622;43.716;20.668;2022-10-29T17:24:44;15.30;99.00
42989;DHT22;28622;43.716;20.668;2022-10-29T17:27:11;15.20;99.00
42989;DHT22;28622;43.716;20.668;2022-10-29T17:29:40;15.10;99.70
42989;DHT22;28622;43.716;20.668;2022-10-29T17:32:08;15.10;99.90
42989;DHT22;28622;43.716;20.668;2022-10-29T17:34:34;15.00;99.90
42989;DHT22;28622;43.716;20.668;2022-10-29T17:37:01;15.00;99.90
42989;DHT22;28622;43.716;20.668;2022-10-29T17:39:28;14.90;99.90
42989;DHT22;28622;43.716;20.668;2022-10-29T17:41:54;14.90;99.90
42989;DHT22;28622;43.716;20.668;2022-10-29T17:44:20;14.90;99.90
42989;DHT22;28622;43.716;20.668;2022-10-29T17:46:46;14.80;99.90
42989;DHT22;28622;43.716;20.668;2022-10-29T17:49:11;14.70;99.90
42989;DHT22;28622;43.716;20.668;2022-10-29T17:51:37;14.60;99.90
42989;DHT22;28622;43.716;20.668;2022-10-29T17:54:03;14.50;99.90
42989;DHT22;28622;43.716;20.668;2022-10-29T17:56:32;14.40;99.90
42989;DHT22;28622;43.716;20.668;2022-10-29T17:58:58;14.30;99.90
42989;DHT22;28622;43.716;20.668;2022-10-29T18:01:23;14.30;99.90
42989;DHT22;28622;43.716;20.668;2022-10-29T18:03:49;14.30;99.90
42989;DHT22;28622;43.716;20.668;2022-10-29T18:06:15;14.10;99.90
42989;DHT22;28622;43.716;20.668;2022-10-29T18:08:42;13.90;99.90
42989;DHT22;28622;43.716;20.668;2022-10-29T18:11:16;13.90;99.90
42989;DHT22;28622;43.716;20.668;2022-10-29T18:13:44;13.90;99.90
42989;DHT22;28622;43.716;20.668;2022-10-29T18:16:19;13.80;99.90
42989;DHT22;28622;43.716;20.668;2022-10-29T18:18:45;13.70;99.90
42989;DHT22;28622;43.716;20.668;2022-10-29T18:21:14;13.70;99.90
42989;DHT22;28622;43.716;20.668;2022-10-29T18:23:40;13.60;99.90
42989;DHT22;28622;43.716;20.668;2022-10-29T18:26:31;13.60;99.90
42989;DHT22;28622;43.716;20.668;2022-10-29T18:29:08;13.50;99.90
42989;DHT22;28622;43.716;20.668;2022-10-29T18:31:37;13.50;99.90
42989;DHT22;28622;43.716;20.668;2022-10-29T18:34:05;13.50;99.90
42989;DHT22;28622;43.716;20.668;2022-10-29T18:36:34;13.50;99.90